createdAt,value
2023-04-23T06:21:04.635Z,3.80
2023-04-23T06:31:04.637Z,4.67
2023-04-23T06:41:04.725Z,5.12
2023-04-23T06:51:04.783Z,5.93
2023-04-23T07:01:04.702Z,4.93
2023-04-23T07:11:04.749Z,3.52
2023-04-23T07:21:04.595Z,2.54
2023-04-23T07:31:04.626Z,2.97
2023-04-23T07:41:04.732Z,3.29
2023-04-23T07:51:04.713Z,0.69
2023-04-23T08:01:04.866Z,0.00
2023-04-23T08:11:04.734Z,0.00
2023-04-23T08:21:04.887Z,0.00
2023-04-23T08:31:15.104Z,0.00
2023-04-23T08:41:04.963Z,0.00
2023-04-23T08:51:04.821Z,0.00
2023-04-23T09:01:04.913Z,0.00
2023-04-23T09:11:04.924Z,0.00
2023-04-23T09:21:04.975Z,0.00
2023-04-23T09:31:04.921Z,0.00
2023-04-23T09:41:04.802Z,0.00
2023-04-23T09:51:04.782Z,0.00
2023-04-23T10:01:05.099Z,0.00
2023-04-23T10:11:20.144Z,0.00
2023-04-23T10:21:04.979Z,0.00
2023-04-23T10:31:04.889Z,0.00
2023-04-23T10:41:04.900Z,0.00
2023-04-23T10:51:30.584Z,0.00
2023-04-23T11:01:04.930Z,0.00
2023-04-23T11:11:04.904Z,0.00
2023-04-23T11:21:04.754Z,0.00
2023-04-23T11:31:04.934Z,0.00
2023-04-23T11:41:04.887Z,0.00
2023-04-23T11:51:05.165Z,0.00
2023-04-23T12:01:05.123Z,0.00
2023-04-23T12:11:05.084Z,0.00
2023-04-23T12:21:04.950Z,0.00
2023-04-23T12:31:05.237Z,0.00
2023-04-23T12:41:04.992Z,0.00
2023-04-23T12:51:05.250Z,0.00
2023-04-23T13:01:04.979Z,0.00
2023-04-23T13:11:04.993Z,0.00
2023-04-23T13:21:05.245Z,0.00
2023-04-23T13:31:05.115Z,0.00
2023-04-23T13:41:05.278Z,0.00
2023-04-23T13:51:13.598Z,0.00
2023-04-23T14:01:05.095Z,0.00
2023-04-23T14:11:05.190Z,0.00
2023-04-23T14:21:05.134Z,0.00
2023-04-23T14:31:05.311Z,0.00
2023-04-23T14:41:05.155Z,0.00
2023-04-23T14:51:05.125Z,1.30
2023-04-23T15:01:06.942Z,3.75
2023-04-23T15:11:05.272Z,4.58
2023-04-23T15:21:05.328Z,0.00
2023-04-23T15:31:05.192Z,0.00
2023-04-23T15:41:05.473Z,0.00
2023-04-23T15:51:05.345Z,0.00
2023-04-23T16:01:05.394Z,0.00
2023-04-23T16:11:05.243Z,0.00
2023-04-23T16:21:05.420Z,0.00
2023-04-23T16:31:05.340Z,0.00
2023-04-23T16:41:05.469Z,0.00
2023-04-23T16:51:05.429Z,0.00
2023-04-23T17:01:05.296Z,0.00
2023-04-23T17:11:05.350Z,0.00
2023-04-23T17:21:05.419Z,0.00
2023-04-23T17:31:05.681Z,0.00
2023-04-23T17:41:05.534Z,0.00
2023-04-23T17:51:05.604Z,0.00
2023-04-23T18:01:05.689Z,0.00
2023-04-23T18:11:05.442Z,0.00
2023-04-23T18:21:05.387Z,0.00
2023-04-23T18:31:05.731Z,5.90
2023-04-23T18:41:05.732Z,7.38
2023-04-23T18:51:05.944Z,9.73
2023-04-23T19:01:05.867Z,8.86
2023-04-23T19:11:06.289Z,10.37
2023-04-23T19:21:06.103Z,9.45
